sensor_id;sensor_type;location;lat;lon;timestamp;pressure;altitude;pressure_sealevel;temperature;humidity
71716;BME280;59568;52.128;5.434;2023-04-09T00:00:16;102785.59;;;8.53;87.32
71716;BME280;59568;52.128;5.434;2023-04-09T00:02:43;102791.78;;;8.52;87.38
71716;BME280;59568;52.128;5.434;2023-04-09T00:05:10;102789.97;;;8.53;87.56
71716;BME280;59568;52.128;5.434;2023-04-09T00:07:37;102784.75;;;8.53;87.49
71716;BME280;59568;52.128;5.434;2023-04-09T00:10:04;102783.97;;;8.52;87.65
71716;BME280;59568;52.128;5.434;2023-04-09T00:12:31;102791.59;;;8.54;87.37
71716;BME280;59568;52.128;5.434;2023-04-09T00:14:58;102787.16;;;8.54;87.40
71716;BME280;59568;52.128;5.434;2023-04-09T00:17:25;102791.38;;;8.55;87.39
71716;BME280;59568;52.128;5.434;2023-04-09T00:19:52;102789.75;;;8.54;87.40
71716;BME280;59568;52.128;5.434;2023-04-09T00:22:19;102787.16;;;8.54;87.38
71716;BME280;59568;52.128;5.434;2023-04-09T00:24:45;102789.53;;;8.56;87.27
71716;BME280;59568;52.128;5.434;2023-04-09T00:27:12;102778.56;;;8.54;87.17
71716;BME280;59568;52.128;5.434;2023-04-09T00:29:39;102785.59;;;8.53;87.35
71716;BME280;59568;52.128;5.434;2023-04-09T00:32:06;102781.16;;;8.54;87.30
71716;BME280;59568;52.128;5.434;2023-04-09T00:34:34;102774.34;;;8.53;87.38
71716;BME280;59568;52.128;5.434;2023-04-09T00:37:00;102777.75;;;8.53;87.45
71716;BME280;59568;52.128;5.434;2023-04-09T00:39:27;102776.94;;;8.53;87.39
71716;BME280;59568;52.128;5.434;2023-04-09T00:41:58;102770.16;;;8.52;87.19
71716;BME280;59568;52.128;5.434;2023-04-09T00:44:28;102769.13;;;8.53;87.35
71716;BME280;59568;52.128;5.434;2023-04-09T00:46:54;102777.53;;;8.55;87.31
71716;BME280;59568;52.128;5.434;2023-04-09T00:49:23;102764.72;;;8.53;87.38
71716;BME280;59568;52.128;5.434;2023-04-09T00:51:52;102768.34;;;8.52;87.32
71716;BME280;59568;52.128;5.434;2023-04-09T00:54:19;102763.13;;;8.52;87.37
71716;BME280;59568;52.128;5.434;2023-04-09T00:56:46;102765.53;;;8.54;87.45
71716;BME280;59568;52.128;5.434;2023-04-09T00:59:13;102767.56;;;8.52;87.45
71716;BME280;59568;52.128;5.434;2023-04-09T01:01:41;102764.16;;;8.51;87.45
71716;BME280;59568;52.128;5.434;2023-04-09T01:04:08;102759.16;;;8.50;87.64
71716;BME280;59568;52.128;5.434;2023-04-09T01:06:56;102758.38;;;8.49;87.60
71716;BME280;59568;52.128;5.434;2023-04-09T01:09:31;102754.75;;;8.50;87.49
71716;BME280;59568;52.128;5.434;2023-04-09T01:12:14;102754.75;;;8.50;87.68
71716;BME280;59568;52.128;5.434;2023-04-09T01:14:53;102751.94;;;8.52;87.77
71716;BME280;59568;52.128;5.434;2023-04-09T01:17:26;102757.13;;;8.52;87.50
71716;BME280;59568;52.128;5.434;2023-04-09T01:20:08;102750.31;;;8.51;87.79
71716;BME280;59568;52.128;5.434;2023-04-09T01:30:27;102753.97;;;8.50;87.72
71716;BME280;59568;52.128;5.434;2023-04-09T01:32:55;102743.53;;;8.50;87.52
71716;BME280;59568;52.128;5.434;2023-04-09T01:35:24;102751.34;;;8.50;87.71
71716;BME280;59568;52.128;5.434;2023-04-09T01:37:53;102754.75;;;8.50;87.85
71716;BME280;59568;52.128;5.434;2023-04-09T01:40:20;102738.31;;;8.50;87.88
71716;BME280;59568;52.128;5.434;2023-04-09T01:42:47;102743.53;;;8.50;87.85
71716;BME280;59568;52.128;5.434;2023-04-09T01:45:15;102741.94;;;8.49;88.10
71716;BME280;59568;52.128;5.434;2023-04-09T01:47:42;102730.72;;;8.48;88.11
71716;BME280;59568;52.128;5.434;2023-04-09T01:50:09;102740.38;;;8.48;88.02
71716;BME280;59568;52.128;5.434;2023-04-09T01:52:36;102738.31;;;8.50;88.28
71716;BME280;59568;52.128;5.434;2023-04-09T01:55:04;102741.94;;;8.49;88.01
71716;BME280;59568;52.128;5.434;2023-04-09T01:57:31;102733.34;;;8.48;87.87
71716;BME280;59568;52.128;5.434;2023-04-09T01:59:58;102739.91;;;8.51;87.86
71716;BME280;59568;52.128;5.434;2023-04-09T02:02:35;102739.34;;;8.49;87.87
71716;BME280;59568;52.128;5.434;2023-04-09T02:05:06;102729.94;;;8.48;87.87
71716;BME280;59568;52.128;5.434;2023-04-09T02:07:38;102730.72;;;8.48;87.76
71716;BME280;59568;52.128;5.434;2023-04-09T02:10:09;102734.13;;;8.49;88.00
71716;BME280;59568;52.128;5.434;2023-04-09T02:12:39;102734.38;;;8.47;88.09
71716;BME280;59568;52.128;5.434;2023-04-09T02:15:08;102735.94;;;8.48;88.05
71716;BME280;59568;52.128;5.434;2023-04-09T02:17:36;102730.72;;;8.48;88.21
71716;BME280;59568;52.128;5.434;2023-04-09T02:20:03;102723.69;;;8.49;88.26
71716;BME280;59568;52.128;5.434;2023-04-09T02:22:30;102721.09;;;8.49;87.91
71716;BME280;59568;52.128;5.434;2023-04-09T02:24:57;102719.53;;;8.48;88.17
71716;BME280;59568;52.128;5.434;2023-04-09T02:27:23;102723.13;;;8.47;88.20
71716;BME280;59568;52.128;5.434;2023-04-09T02:29:50;102716.34;;;8.46;88.29
71716;BME280;59568;52.128;5.434;2023-04-09T02:32:17;102718.75;;;8.47;88.45
71716;BME280;59568;52.128;5.434;2023-04-09T02:34:44;102711.13;;;8.46;88.43
71716;BME280;59568;52.128;5.434;2023-04-09T02:37:11;102720.53;;;8.47;88.41
71716;BME280;59568;52.128;5.434;2023-04-09T02:39:38;102713.16;;;8.44;88.25
71716;BME280;59568;52.128;5.434;2023-04-09T02:42:05;102713.16;;;8.44;88.26
71716;BME280;59568;52.128;5.434;2023-04-09T02:44:33;102716.34;;;8.46;88.14
71716;BME280;59568;52.128;5.434;2023-04-09T02:47:00;102717.13;;;8.46;88.30
71716;BME280;59568;52.128;5.434;2023-04-09T02:49:27;102709.53;;;8.45;88.25
71716;BME280;59568;52.128;5.434;2023-04-09T02:51:54;102704.91;;;8.47;88.05
71716;BME280;59568;52.128;5.434;2023-04-09T02:54:20;102700.50;;;8.47;87.93
71716;BME280;59568;52.128;5.434;2023-04-09T02:56:47;102702.75;;;8.44;88.03
71716;BME280;59568;52.128;5.434;2023-04-09T02:59:14;102700.72;;;8.46;87.98
71716;BME280;59568;52.128;5.434;2023-04-09T03:01:41;102703.88;;;8.48;88.02
71716;BME280;59568;52.128;5.434;2023-04-09T03:04:08;102704.91;;;8.47;88.16
71716;BME280;59568;52.128;5.434;2023-04-09T03:06:35;102710.09;;;8.47;88.24
71716;BME280;59568;52.128;5.434;2023-04-09T03:09:02;102705.94;;;8.46;88.23
71716;BME280;59568;52.128;5.434;2023-04-09T03:11:29;102709.09;;;8.48;87.77
71716;BME280;59568;52.128;5.434;2023-04-09T03:13:56;102705.47;;;8.49;87.85
71716;BME280;59568;52.128;5.434;2023-04-09T03:16:25;102707.63;;;8.52;87.98
71716;BME280;59568;52.128;5.434;2023-04-09T03:18:52;102707.84;;;8.50;87.89
71716;BME280;59568;52.128;5.434;2023-04-09T03:21:19;102701.06;;;8.49;88.13
71716;BME280;59568;52.128;5.434;2023-04-09T03:23:46;102704.69;;;8.48;88.39
71716;BME280;59568;52.128;5.434;2023-04-09T03:26:13;102700.72;;;8.46;88.10
71716;BME280;59568;52.128;5.434;2023-04-09T03:28:40;102703.88;;;8.48;88.14
71716;BME280;59568;52.128;5.434;2023-04-09T03:31:06;102691.28;;;8.45;88.28
71716;BME280;59568;52.128;5.434;2023-04-09T03:33:33;102693.13;;;8.44;88.31
71716;BME280;59568;52.128;5.434;2023-04-09T03:36:00;102692.13;;;8.45;88.34
71716;BME280;59568;52.128;5.434;2023-04-09T03:38:27;102686.66;;;8.47;88.29
71716;BME280;59568;52.128;5.434;2023-04-09T03:40:54;102688.69;;;8.45;88.27
71716;BME280;59568;52.128;5.434;2023-04-09T03:43:21;102683.72;;;8.43;88.21
71716;BME280;59568;52.128;5.434;2023-04-09T03:45:48;102682.69;;;8.44;88.27
71716;BME280;59568;52.128;5.434;2023-04-09T03:48:15;102678.28;;;8.45;88.17
71716;BME280;59568;52.128;5.434;2023-04-09T03:50:42;102678.28;;;8.45;88.28
71716;BME280;59568;52.128;5.434;2023-04-09T03:53:08;102686.09;;;8.45;88.32
71716;BME280;59568;52.128;5.434;2023-04-09T03:55:36;102681.13;;;8.43;88.31
71716;BME280;59568;52.128;5.434;2023-04-09T03:58:03;102681.91;;;8.44;88.04
71716;BME280;59568;52.128;5.434;2023-04-09T04:00:29;102679.31;;;8.44;88.23
71716;BME280;59568;52.128;5.434;2023-04-09T04:02:56;102683.47;;;8.45;88.69
71716;BME280;59568;52.128;5.434;2023-04-09T04:05:23;102676.69;;;8.44;88.42
71716;BME280;59568;52.128;5.434;2023-04-09T04:07:53;102677.69;;;8.43;88.53
71716;BME280;59568;52.128;5.434;2023-04-09T04:10:20;102678.94;;;8.40;88.79
71716;BME280;59568;52.128;5.434;2023-04-09T04:12:47;102678.53;;;8.43;88.65
71716;BME280;59568;52.128;5.434;2023-04-09T04:15:14;102678.84;;;8.47;88.58
71716;BME280;59568;52.128;5.434;2023-04-09T04:17:40;102677.28;;;8.46;88.52
71716;BME280;59568;52.128;5.434;2023-04-09T04:20:08;102680.31;;;8.43;88.68
71716;BME280;59568;52.128;5.434;2023-04-09T04:22:35;102674.50;;;8.40;88.70
71716;BME280;59568;52.128;5.434;2023-04-09T04:25:05;102677.94;;;8.41;88.58
71716;BME280;59568;52.128;5.434;2023-04-09T04:27:32;102672.94;;;8.39;88.57
71716;BME280;59568;52.128;5.434;2023-04-09T04:29:58;102665.91;;;8.40;88.41
71716;BME280;59568;52.128;5.434;2023-04-09T04:32:27;102666.13;;;8.38;88.60
71716;BME280;59568;52.128;5.434;2023-04-09T04:34:54;102664.31;;;8.39;88.60
71716;BME280;59568;52.128;5.434;2023-04-09T04:37:21;102670.31;;;8.39;88.67
71716;BME280;59568;52.128;5.434;2023-04-09T04:39:48;102666.69;;;8.40;88.72
71716;BME280;59568;52.128;5.434;2023-04-09T04:42:15;102669.50;;;8.39;88.75
71716;BME280;59568;52.128;5.434;2023-04-09T04:44:43;102672.38;;;8.37;88.72
71716;BME280;59568;52.128;5.434;2023-04-09T04:47:10;102674.72;;;8.39;88.87
71716;BME280;59568;52.128;5.434;2023-04-09T04:49:36;102666.34;;;8.37;88.76
71716;BME280;59568;52.128;5.434;2023-04-09T04:52:04;102672.38;;;8.37;88.67
71716;BME280;59568;52.128;5.434;2023-04-09T04:54:32;102677.31;;;8.39;88.73
71716;BME280;59568;52.128;5.434;2023-04-09T04:56:59;102666.34;;;8.37;88.87
71716;BME280;59568;52.128;5.434;2023-04-09T04:59:26;102676.53;;;8.38;88.83
71716;BME280;59568;52.128;5.434;2023-04-09T05:01:53;102673.94;;;8.38;88.72
71716;BME280;59568;52.128;5.434;2023-04-09T05:04:20;102673.94;;;8.38;88.69
71716;BME280;59568;52.128;5.434;2023-04-09T05:06:47;102661.13;;;8.37;88.13
71716;BME280;59568;52.128;5.434;2023-04-09T05:09:14;102664.97;;;8.34;88.07
71716;BME280;59568;52.128;5.434;2023-04-09T05:11:42;102669.97;;;8.36;88.02
71716;BME280;59568;52.128;5.434;2023-04-09T05:14:09;102659.34;;;8.37;87.98
71716;BME280;59568;52.128;5.434;2023-04-09T05:16:35;102657.75;;;8.36;87.83
71716;BME280;59568;52.128;5.434;2023-04-09T05:19:03;102665.56;;;8.36;88.04
71716;BME280;59568;52.128;5.434;2023-04-09T05:21:29;102662.94;;;8.36;87.98
71716;BME280;59568;52.128;5.434;2023-04-09T05:23:57;102668.94;;;8.37;88.00
71716;BME280;59568;52.128;5.434;2023-04-09T05:26:24;102664.53;;;8.37;87.94
71716;BME280;59568;52.128;5.434;2023-04-09T05:28:52;102669.75;;;8.37;87.99
71716;BME280;59568;52.128;5.434;2023-04-09T05:31:19;102666.34;;;8.37;87.59
71716;BME280;59568;52.128;5.434;2023-04-09T05:33:46;102675.97;;;8.36;87.76
71716;BME280;59568;52.128;5.434;2023-04-09T05:36:14;102671.53;;;8.37;87.79
71716;BME280;59568;52.128;5.434;2023-04-09T05:38:43;102669.75;;;8.37;87.98
71716;BME280;59568;52.128;5.434;2023-04-09T05:41:10;102669.75;;;8.37;87.68
71716;BME280;59568;52.128;5.434;2023-04-09T05:43:36;102675.97;;;8.36;87.90
71716;BME280;59568;52.128;5.434;2023-04-09T05:46:04;102676.53;;;8.38;87.37
71716;BME280;59568;52.128;5.434;2023-04-09T05:48:34;102679.16;;;8.38;87.30
71716;BME280;59568;52.128;5.434;2023-04-09T05:51:01;102678.34;;;8.38;87.22
71716;BME280;59568;52.128;5.434;2023-04-09T05:53:27;102677.56;;;8.37;87.43
71716;BME280;59568;52.128;5.434;2023-04-09T05:55:54;102683.56;;;8.38;87.20
71716;BME280;59568;52.128;5.434;2023-04-09T05:58:21;102683.34;;;8.39;87.23
71716;BME280;59568;52.128;5.434;2023-04-09T06:00:48;102683.16;;;8.41;87.08
71716;BME280;59568;52.128;5.434;2023-04-09T06:03:17;102682.13;;;8.42;86.89
71716;BME280;59568;52.128;5.434;2023-04-09T06:05:44;102686.09;;;8.45;87.03
71716;BME280;59568;52.128;5.434;2023-04-09T06:08:12;102680.31;;;8.43;86.86
71716;BME280;59568;52.128;5.434;2023-04-09T06:10:39;102678.75;;;8.42;86.53
71716;BME280;59568;52.128;5.434;2023-04-09T06:13:07;102683.47;;;8.45;86.48
71716;BME280;59568;52.128;5.434;2023-04-09T06:15:33;102684.63;;;8.49;86.21
71716;BME280;59568;52.128;5.434;2023-04-09T06:18:00;102689.97;;;8.54;86.12
71716;BME280;59568;52.128;5.434;2023-04-09T06:20:27;102677.50;;;8.56;86.16
71716;BME280;59568;52.128;5.434;2023-04-09T06:22:54;102676.03;;;8.60;86.38
71716;BME280;59568;52.128;5.434;2023-04-09T06:25:21;102683.38;;;8.63;86.00
71716;BME280;59568;52.128;5.434;2023-04-09T06:27:48;102685.53;;;8.66;85.70
71716;BME280;59568;52.128;5.434;2023-04-09T06:30:15;102689.75;;;8.67;85.71
71716;BME280;59568;52.128;5.434;2023-04-09T06:32:41;102689.06;;;8.72;85.70
71716;BME280;59568;52.128;5.434;2023-04-09T06:35:20;102690.53;;;8.79;85.82
71716;BME280;59568;52.128;5.434;2023-04-09T06:37:47;102706.28;;;8.85;85.94
71716;BME280;59568;52.128;5.434;2023-04-09T06:40:14;102691.53;;;8.90;85.95
71716;BME280;59568;52.128;5.434;2023-04-09T06:42:41;102699.72;;;8.94;85.40
71716;BME280;59568;52.128;5.434;2023-04-09T06:45:08;102701.28;;;8.95;85.37
71716;BME280;59568;52.128;5.434;2023-04-09T06:47:35;102711.84;;;9.00;85.53
71716;BME280;59568;52.128;5.434;2023-04-09T06:50:03;102696.84;;;9.07;85.48
71716;BME280;59568;52.128;5.434;2023-04-09T06:52:30;102698.22;;;9.10;85.06
71716;BME280;59568;52.128;5.434;2023-04-09T06:54:57;102700.81;;;9.10;85.08
71716;BME280;59568;52.128;5.434;2023-04-09T06:57:24;102702.63;;;9.09;84.82
71716;BME280;59568;52.128;5.434;2023-04-09T06:59:51;102707.84;;;9.09;84.79
71716;BME280;59568;52.128;5.434;2023-04-09T07:02:18;102706.47;;;9.18;84.90
71716;BME280;59568;52.128;5.434;2023-04-09T07:04:45;102701.38;;;9.24;84.64
71716;BME280;59568;52.128;5.434;2023-04-09T07:07:13;102707.34;;;9.36;85.04
71716;BME280;59568;52.128;5.434;2023-04-09T07:09:40;102706.84;;;9.51;84.04
71716;BME280;59568;52.128;5.434;2023-04-09T07:12:07;102708.59;;;9.74;83.85
71716;BME280;59568;52.128;5.434;2023-04-09T07:14:34;102714.91;;;10.07;83.48
71716;BME280;59568;52.128;5.434;2023-04-09T07:17:01;102708.59;;;10.19;81.79
71716;BME280;59568;52.128;5.434;2023-04-09T07:19:28;102704.44;;;10.35;81.25
71716;BME280;59568;52.128;5.434;2023-04-09T07:21:54;102713.47;;;10.62;81.17
71716;BME280;59568;52.128;5.434;2023-04-09T07:24:21;102705.44;;;10.85;79.99
71716;BME280;59568;52.128;5.434;2023-04-09T07:26:48;102715.25;;;10.95;79.32
71716;BME280;59568;52.128;5.434;2023-04-09T07:29:18;102713.91;;;11.14;77.78
71716;BME280;59568;52.128;5.434;2023-04-09T07:31:46;102715.19;;;11.12;76.27
71716;BME280;59568;52.128;5.434;2023-04-09T07:34:13;102716.16;;;11.06;75.80
71716;BME280;59568;52.128;5.434;2023-04-09T07:36:40;102714.09;;;11.30;75.62
71716;BME280;59568;52.128;5.434;2023-04-09T07:39:08;102716.47;;;11.53;75.28
71716;BME280;59568;52.128;5.434;2023-04-09T07:41:35;102708.75;;;11.69;74.69
71716;BME280;59568;52.128;5.434;2023-04-09T07:44:03;102710.75;;;11.84;73.52
71716;BME280;59568;52.128;5.434;2023-04-09T07:46:32;102705.00;;;11.87;73.33
71716;BME280;59568;52.128;5.434;2023-04-09T07:48:59;102705.97;;;12.03;72.56
71716;BME280;59568;52.128;5.434;2023-04-09T07:51:25;102709.38;;;12.03;72.34
71716;BME280;59568;52.128;5.434;2023-04-09T07:53:53;102710.91;;;12.31;72.26
71716;BME280;59568;52.128;5.434;2023-04-09T07:56:20;102711.44;;;12.71;72.26
71716;BME280;59568;52.128;5.434;2023-04-09T07:58:48;102703.69;;;12.91;70.61
71716;BME280;59568;52.128;5.434;2023-04-09T08:01:15;102709.13;;;12.74;69.13
71716;BME280;59568;52.128;5.434;2023-04-09T08:03:42;102705.41;;;12.70;69.36
71716;BME280;59568;52.128;5.434;2023-04-09T08:06:09;102709.00;;;12.59;68.57
71716;BME280;59568;52.128;5.434;2023-04-09T08:08:36;102701.59;;;12.46;68.74
71716;BME280;59568;52.128;5.434;2023-04-09T08:11:03;102711.63;;;12.59;68.52
71716;BME280;59568;52.128;5.434;2023-04-09T08:13:30;102711.88;;;12.57;69.13
71716;BME280;59568;52.128;5.434;2023-04-09T08:15:59;102708.72;;;12.55;69.05
71716;BME280;59568;52.128;5.434;2023-04-09T08:18:27;102708.75;;;12.61;68.90
71716;BME280;59568;52.128;5.434;2023-04-09T08:20:55;102712.75;;;12.68;68.34
71716;BME280;59568;52.128;5.434;2023-04-09T08:23:22;102704.25;;;12.51;68.11
71716;BME280;59568;52.128;5.434;2023-04-09T08:25:49;102705.31;;;12.50;68.28
71716;BME280;59568;52.128;5.434;2023-04-09T08:28:16;102711.56;;;12.49;68.36
71716;BME280;59568;52.128;5.434;2023-04-09T08:30:43;102704.69;;;12.37;68.14
71716;BME280;59568;52.128;5.434;2023-04-09T08:33:10;102705.66;;;12.31;68.11
71716;BME280;59568;52.128;5.434;2023-04-09T08:35:37;102709.34;;;12.68;68.19
71716;BME280;59568;52.128;5.434;2023-04-09T08:38:06;102709.56;;;12.61;67.19
71716;BME280;59568;52.128;5.434;2023-04-09T08:40:36;102708.19;;;12.96;69.03
71716;BME280;59568;52.128;5.434;2023-04-09T08:43:05;102707.00;;;13.24;68.47
71716;BME280;59568;52.128;5.434;2023-04-09T08:45:32;102716.09;;;13.06;66.78
71716;BME280;59568;52.128;5.434;2023-04-09T08:48:01;102711.03;;;12.89;67.24
71716;BME280;59568;52.128;5.434;2023-04-09T08:50:32;102714.47;;;12.90;68.32
71716;BME280;59568;52.128;5.434;2023-04-09T08:53:02;102702.78;;;13.18;68.47
71716;BME280;59568;52.128;5.434;2023-04-09T08:55:30;102698.44;;;13.44;68.39
71716;BME280;59568;52.128;5.434;2023-04-09T08:58:03;102701.13;;;13.85;69.13
71716;BME280;59568;52.128;5.434;2023-04-09T09:00:31;102705.88;;;14.09;68.03
71716;BME280;59568;52.128;5.434;2023-04-09T09:08:03;102699.53;;;14.20;64.99
71716;BME280;59568;52.128;5.434;2023-04-09T09:10:56;102694.53;;;13.88;65.69
71716;BME280;59568;52.128;5.434;2023-04-09T09:13:24;102692.44;;;13.85;65.72
71716;BME280;59568;52.128;5.434;2023-04-09T09:15:54;102692.72;;;14.14;66.04
71716;BME280;59568;52.128;5.434;2023-04-09T09:18:38;102690.59;;;14.16;64.02
71716;BME280;59568;52.128;5.434;2023-04-09T09:21:13;102688.22;;;14.04;63.80
71716;BME280;59568;52.128;5.434;2023-04-09T09:23:40;102689.56;;;14.02;64.45
71716;BME280;59568;52.128;5.434;2023-04-09T09:26:12;102687.97;;;14.31;66.47
71716;BME280;59568;52.128;5.434;2023-04-09T09:28:40;102685.84;;;14.28;65.27
71716;BME280;59568;52.128;5.434;2023-04-09T09:31:11;102682.16;;;14.34;64.41
71716;BME280;59568;52.128;5.434;2023-04-09T09:33:38;102684.81;;;14.39;64.77
71716;BME280;59568;52.128;5.434;2023-04-09T09:36:06;102681.63;;;14.53;64.78
71716;BME280;59568;52.128;5.434;2023-04-09T09:38:56;102681.09;;;14.41;64.14
71716;BME280;59568;52.128;5.434;2023-04-09T09:41:23;102677.94;;;14.54;64.92
71716;BME280;59568;52.128;5.434;2023-04-09T09:43:51;102673.16;;;14.76;63.87
71716;BME280;59568;52.128;5.434;2023-04-09T09:46:20;102670.00;;;14.74;63.97
71716;BME280;59568;52.128;5.434;2023-04-09T09:48:47;102667.72;;;15.17;64.29
71716;BME280;59568;52.128;5.434;2023-04-09T09:51:15;102675.84;;;15.26;62.03
71716;BME280;59568;52.128;5.434;2023-04-09T09:53:43;102673.53;;;15.14;63.47
71716;BME280;59568;52.128;5.434;2023-04-09T09:56:14;102664.78;;;15.24;63.05
71716;BME280;59568;52.128;5.434;2023-04-09T09:58:57;102670.31;;;15.28;61.94
71716;BME280;59568;52.128;5.434;2023-04-09T10:01:27;102664.16;;;15.43;61.67
71716;BME280;59568;52.128;5.434;2023-04-09T10:03:56;102666.13;;;15.61;62.08
71716;BME280;59568;52.128;5.434;2023-04-09T10:06:26;102665.91;;;15.57;61.09
71716;BME280;59568;52.128;5.434;2023-04-09T10:08:56;102662.66;;;15.76;61.87
71716;BME280;59568;52.128;5.434;2023-04-09T10:11:24;102657.81;;;15.88;61.32
71716;BME280;59568;52.128;5.434;2023-04-09T10:13:55;102652.03;;;15.81;61.27
71716;BME280;59568;52.128;5.434;2023-04-09T10:16:25;102653.03;;;15.51;60.44
71716;BME280;59568;52.128;5.434;2023-04-09T10:18:56;102642.16;;;15.63;62.16
71716;BME280;59568;52.128;5.434;2023-04-09T10:24:13;102635.16;;;16.11;60.53
71716;BME280;59568;52.128;5.434;2023-04-09T10:26:42;102630.50;;;16.03;59.49
71716;BME280;59568;52.128;5.434;2023-04-09T10:29:14;102631.09;;;16.24;59.96
71716;BME280;59568;52.128;5.434;2023-04-09T10:31:53;102628.00;;;16.17;57.07
71716;BME280;59568;52.128;5.434;2023-04-09T10:34:22;102623.47;;;15.93;57.89
71716;BME280;59568;52.128;5.434;2023-04-09T10:36:52;102618.84;;;16.33;59.20
71716;BME280;59568;52.128;5.434;2023-04-09T10:39:31;102618.53;;;16.16;57.57
71716;BME280;59568;52.128;5.434;2023-04-09T10:42:07;102619.72;;;16.29;60.66
71716;BME280;59568;52.128;5.434;2023-04-09T10:44:34;102614.59;;;16.37;57.82
71716;BME280;59568;52.128;5.434;2023-04-09T10:47:08;102611.44;;;16.60;58.60
71716;BME280;59568;52.128;5.434;2023-04-09T10:49:37;102600.94;;;16.97;58.83
71716;BME280;59568;52.128;5.434;2023-04-09T10:52:05;102606.38;;;17.25;57.61
71716;BME280;59568;52.128;5.434;2023-04-09T10:54:37;102607.50;;;17.38;57.39
71716;BME280;59568;52.128;5.434;2023-04-09T10:59:42;102597.50;;;17.16;55.40
71716;BME280;59568;52.128;5.434;2023-04-09T11:05:34;102597.84;;;17.47;55.39
71716;BME280;59568;52.128;5.434;2023-04-09T11:08:12;102590.16;;;17.32;54.78
71716;BME280;59568;52.128;5.434;2023-04-09T11:10:42;102585.03;;;17.22;52.55
71716;BME280;59568;52.128;5.434;2023-04-09T11:13:15;102595.44;;;17.32;54.09
71716;BME280;59568;52.128;5.434;2023-04-09T11:15:44;102586.16;;;17.15;52.16
71716;BME280;59568;52.128;5.434;2023-04-09T11:18:29;102591.94;;;17.17;53.48
71716;BME280;59568;52.128;5.434;2023-04-09T11:20:58;102581.59;;;17.54;53.91
71716;BME280;59568;52.128;5.434;2023-04-09T11:23:26;102583.00;;;17.65;52.60
71716;BME280;59568;52.128;5.434;2023-04-09T11:25:54;102578.91;;;17.73;53.16
71716;BME280;59568;52.128;5.434;2023-04-09T11:28:22;102577.84;;;17.74;52.99
71716;BME280;59568;52.128;5.434;2023-04-09T11:30:50;102590.78;;;17.43;51.15
71716;BME280;59568;52.128;5.434;2023-04-09T11:33:17;102568.84;;;17.42;51.32
71716;BME280;59568;52.128;5.434;2023-04-09T11:35:46;102576.09;;;17.36;50.32
71716;BME280;59568;52.128;5.434;2023-04-09T11:38:13;102572.44;;;17.65;53.70
71716;BME280;59568;52.128;5.434;2023-04-09T11:40:41;102578.09;;;18.05;53.34
71716;BME280;59568;52.128;5.434;2023-04-09T11:43:15;102579.66;;;18.20;52.23
71716;BME280;59568;52.128;5.434;2023-04-09T11:45:45;102580.44;;;18.07;50.88
71716;BME280;59568;52.128;5.434;2023-04-09T11:48:15;102567.69;;;17.48;52.11
71716;BME280;59568;52.128;5.434;2023-04-09T11:50:45;102579.66;;;17.92;52.54
71716;BME280;59568;52.128;5.434;2023-04-09T11:53:19;102575.25;;;18.02;48.45
71716;BME280;59568;52.128;5.434;2023-04-09T11:55:49;102579.25;;;17.85;48.74
71716;BME280;59568;52.128;5.434;2023-04-09T11:58:17;102576.16;;;17.97;47.82
71716;BME280;59568;52.128;5.434;2023-04-09T12:00:44;102574.97;;;17.70;49.66
71716;BME280;59568;52.128;5.434;2023-04-09T12:03:11;102560.03;;;17.33;50.18
71716;BME280;59568;52.128;5.434;2023-04-09T12:05:44;102564.91;;;16.88;49.61
71716;BME280;59568;52.128;5.434;2023-04-09T12:08:22;102565.44;;;16.47;49.77
71716;BME280;59568;52.128;5.434;2023-04-09T12:10:50;102557.75;;;16.69;51.49
71716;BME280;59568;52.128;5.434;2023-04-09T12:13:19;102556.06;;;17.30;49.54
71716;BME280;59568;52.128;5.434;2023-04-09T12:15:48;102555.06;;;16.93;51.70
71716;BME280;59568;52.128;5.434;2023-04-09T12:18:15;102549.19;;;17.48;51.57
71716;BME280;59568;52.128;5.434;2023-04-09T12:20:45;102549.78;;;18.06;52.10
71716;BME280;59568;52.128;5.434;2023-04-09T12:23:13;102558.78;;;18.05;48.90
71716;BME280;59568;52.128;5.434;2023-04-09T12:25:42;102561.06;;;18.11;48.82
71716;BME280;59568;52.128;5.434;2023-04-09T12:28:13;102564.19;;;18.27;46.03
71716;BME280;59568;52.128;5.434;2023-04-09T12:30:44;102558.28;;;18.03;48.23
71716;BME280;59568;52.128;5.434;2023-04-09T12:33:12;102562.13;;;18.24;47.60
71716;BME280;59568;52.128;5.434;2023-04-09T12:35:39;102560.44;;;18.28;48.03
71716;BME280;59568;52.128;5.434;2023-04-09T12:38:06;102553.88;;;18.40;48.08
71716;BME280;59568;52.128;5.434;2023-04-09T12:40:36;102558.31;;;18.67;47.08
71716;BME280;59568;52.128;5.434;2023-04-09T12:43:03;102550.66;;;18.79;48.12
71716;BME280;59568;52.128;5.434;2023-04-09T12:45:31;102543.38;;;18.85;48.16
71716;BME280;59568;52.128;5.434;2023-04-09T12:47:58;102546.78;;;19.22;48.85
71716;BME280;59568;52.128;5.434;2023-04-09T12:50:25;102546.41;;;19.37;45.99
71716;BME280;59568;52.128;5.434;2023-04-09T12:52:52;102541.88;;;19.15;47.55
71716;BME280;59568;52.128;5.434;2023-04-09T12:55:20;102541.00;;;19.20;47.09
71716;BME280;59568;52.128;5.434;2023-04-09T12:57:50;102536.78;;;18.96;45.86
71716;BME280;59568;52.128;5.434;2023-04-09T13:00:17;102541.31;;;18.95;47.42
71716;BME280;59568;52.128;5.434;2023-04-09T13:02:44;102546.34;;;18.83;48.00
71716;BME280;59568;52.128;5.434;2023-04-09T13:05:12;102539.25;;;18.79;46.92
71716;BME280;59568;52.128;5.434;2023-04-09T13:07:39;102541.38;;;19.04;45.42
71716;BME280;59568;52.128;5.434;2023-04-09T13:10:09;102542.91;;;19.05;46.06
71716;BME280;59568;52.128;5.434;2023-04-09T13:12:36;102541.66;;;18.66;44.74
71716;BME280;59568;52.128;5.434;2023-04-09T13:15:03;102532.94;;;18.80;45.77
71716;BME280;59568;52.128;5.434;2023-04-09T13:17:30;102531.94;;;18.75;45.98
71716;BME280;59568;52.128;5.434;2023-04-09T13:19:57;102525.81;;;18.89;45.48
71716;BME280;59568;52.128;5.434;2023-04-09T13:22:24;102532.25;;;18.96;46.58